sensor_id;sensor_type;location;lat;lon;timestamp;temperature;humidity
3380;DHT22;1703;51.964;7.642;2022-12-29T00:00:02;10.50;99.90
3380;DHT22;1703;51.964;7.642;2022-12-29T00:02:38;10.50;99.90
3380;DHT22;1703;51.964;7.642;2022-12-29T00:05:05;10.50;99.90
3380;DHT22;1703;51.964;7.642;2022-12-29T00:07:34;10.50;99.90
3380;DHT22;1703;51.964;7.642;2022-12-29T00:10:00;10.50;99.90
3380;DHT22;1703;51.964;7.642;2022-12-29T00:12:27;10.50;99.90
3380;DHT22;1703;51.964;7.642;2022-12-29T00:15:15;10.50;99.90
3380;DHT22;1703;51.964;7.642;2022-12-29T00:17:59;10.50;99.90
3380;DHT22;1703;51.964;7.642;2022-12-29T00:22:56;10.50;99.90
3380;DHT22;1703;51.964;7.642;2022-12-29T00:25:40;10.60;99.90
3380;DHT22;1703;51.964;7.642;2022-12-29T00:28:25;10.60;99.90
3380;DHT22;1703;51.964;7.642;2022-12-29T00:31:11;10.60;99.90
3380;DHT22;1703;51.964;7.642;2022-12-29T00:33:56;10.60;99.90
3380;DHT22;1703;51.964;7.642;2022-12-29T00:36:42;10.70;99.90
3380;DHT22;1703;51.964;7.642;2022-12-29T00:39:13;10.70;99.90
3380;DHT22;1703;51.964;7.642;2022-12-29T00:41:55;10.60;99.90
3380;DHT22;1703;51.964;7.642;2022-12-29T00:44:44;10.60;99.90
3380;DHT22;1703;51.964;7.642;2022-12-29T00:47:13;10.70;99.90
3380;DHT22;1703;51.964;7.642;2022-12-29T00:49:40;10.70;99.90
3380;DHT22;1703;51.964;7.642;2022-12-29T00:52:07;10.80;99.90
3380;DHT22;1703;51.964;7.642;2022-12-29T00:54:37;10.70;99.90
3380;DHT22;1703;51.964;7.642;2022-12-29T00:57:06;10.70;99.90
3380;DHT22;1703;51.964;7.642;2022-12-29T00:59:34;10.80;99.90
3380;DHT22;1703;51.964;7.642;2022-12-29T01:02:01;10.80;99.90
3380;DHT22;1703;51.964;7.642;2022-12-29T01:04:28;10.80;99.90
3380;DHT22;1703;51.964;7.642;2022-12-29T01:06:55;10.80;99.90
3380;DHT22;1703;51.964;7.642;2022-12-29T01:09:22;10.90;99.90
3380;DHT22;1703;51.964;7.642;2022-12-29T01:12:09;10.80;99.90
3380;DHT22;1703;51.964;7.642;2022-12-29T01:14:36;10.80;99.90
3380;DHT22;1703;51.964;7.642;2022-12-29T01:17:04;10.90;99.90
3380;DHT22;1703;51.964;7.642;2022-12-29T01:19:32;10.80;99.90
3380;DHT22;1703;51.964;7.642;2022-12-29T01:21:59;10.80;99.90
3380;DHT22;1703;51.964;7.642;2022-12-29T01:24:27;10.70;99.90
3380;DHT22;1703;51.964;7.642;2022-12-29T01:26:54;10.70;99.90
3380;DHT22;1703;51.964;7.642;2022-12-29T01:29:22;10.70;99.90
3380;DHT22;1703;51.964;7.642;2022-12-29T01:31:49;10.70;99.90
3380;DHT22;1703;51.964;7.642;2022-12-29T01:34:16;10.60;99.90
3380;DHT22;1703;51.964;7.642;2022-12-29T01:36:42;10.60;99.90
3380;DHT22;1703;51.964;7.642;2022-12-29T01:39:10;10.70;99.90
3380;DHT22;1703;51.964;7.642;2022-12-29T01:41:37;10.60;99.90
3380;DHT22;1703;51.964;7.642;2022-12-29T01:47:07;10.70;99.90
3380;DHT22;1703;51.964;7.642;2022-12-29T01:49:34;10.60;99.90
3380;DHT22;1703;51.964;7.642;2022-12-29T01:52:03;10.60;99.90
3380;DHT22;1703;51.964;7.642;2022-12-29T01:54:35;10.70;99.90
3380;DHT22;1703;51.964;7.642;2022-12-29T01:57:06;10.70;99.90
3380;DHT22;1703;51.964;7.642;2022-12-29T01:59:38;10.70;99.90
3380;DHT22;1703;51.964;7.642;2022-12-29T02:02:08;10.70;99.90
3380;DHT22;1703;51.964;7.642;2022-12-29T02:04:35;10.60;99.90
3380;DHT22;1703;51.964;7.642;2022-12-29T02:07:10;10.60;99.90
3380;DHT22;1703;51.964;7.642;2022-12-29T02:09:38;10.60;99.90
3380;DHT22;1703;51.964;7.642;2022-12-29T02:12:05;10.60;99.90
3380;DHT22;1703;51.964;7.642;2022-12-29T02:14:33;10.60;99.90
3380;DHT22;1703;51.964;7.642;2022-12-29T02:17:08;10.60;99.90
3380;DHT22;1703;51.964;7.642;2022-12-29T02:20:15;10.60;99.90
3380;DHT22;1703;51.964;7.642;2022-12-29T02:22:58;10.60;99.90
3380;DHT22;1703;51.964;7.642;2022-12-29T02:25:45;10.70;99.90
3380;DHT22;1703;51.964;7.642;2022-12-29T02:28:35;10.70;99.90
3380;DHT22;1703;51.964;7.642;2022-12-29T02:31:15;10.70;99.90
3380;DHT22;1703;51.964;7.642;2022-12-29T02:33:55;10.60;99.90
3380;DHT22;1703;51.964;7.642;2022-12-29T02:36:32;10.70;99.90
3380;DHT22;1703;51.964;7.642;2022-12-29T02:39:05;10.70;99.90
3380;DHT22;1703;51.964;7.642;2022-12-29T02:41:42;10.70;99.90
3380;DHT22;1703;51.964;7.642;2022-12-29T02:44:16;10.80;99.90
3380;DHT22;1703;51.964;7.642;2022-12-29T02:46:53;10.80;99.90
3380;DHT22;1703;51.964;7.642;2022-12-29T02:49:27;10.80;99.90
3380;DHT22;1703;51.964;7.642;2022-12-29T02:52:02;10.80;99.90
3380;DHT22;1703;51.964;7.642;2022-12-29T02:54:35;10.80;99.90
3380;DHT22;1703;51.964;7.642;2022-12-29T02:57:11;10.80;99.90
3380;DHT22;1703;51.964;7.642;2022-12-29T02:59:38;10.90;99.90
3380;DHT22;1703;51.964;7.642;2022-12-29T03:02:23;10.90;99.90
3380;DHT22;1703;51.964;7.642;2022-12-29T03:05:06;10.90;99.90
3380;DHT22;1703;51.964;7.642;2022-12-29T03:07:45;10.90;99.90
3380;DHT22;1703;51.964;7.642;2022-12-29T03:10:22;11.00;99.90
3380;DHT22;1703;51.964;7.642;2022-12-29T03:12:56;11.00;99.90
3380;DHT22;1703;51.964;7.642;2022-12-29T03:15:48;11.10;99.90
3380;DHT22;1703;51.964;7.642;2022-12-29T03:18:44;11.10;99.90
3380;DHT22;1703;51.964;7.642;2022-12-29T03:21:17;11.10;99.90
3380;DHT22;1703;51.964;7.642;2022-12-29T03:23:49;11.20;99.90
3380;DHT22;1703;51.964;7.642;2022-12-29T03:26:17;11.20;99.90
3380;DHT22;1703;51.964;7.642;2022-12-29T03:28:47;11.20;99.90
3380;DHT22;1703;51.964;7.642;2022-12-29T03:31:20;11.30;99.90
3380;DHT22;1703;51.964;7.642;2022-12-29T03:33:50;11.20;99.90
3380;DHT22;1703;51.964;7.642;2022-12-29T03:36:23;11.30;99.90
3380;DHT22;1703;51.964;7.642;2022-12-29T03:38:57;11.30;99.90
3380;DHT22;1703;51.964;7.642;2022-12-29T03:41:30;11.30;99.90
3380;DHT22;1703;51.964;7.642;2022-12-29T03:43:58;11.30;99.90
3380;DHT22;1703;51.964;7.642;2022-12-29T03:46:25;11.30;99.90
3380;DHT22;1703;51.964;7.642;2022-12-29T03:48:53;11.30;99.90
3380;DHT22;1703;51.964;7.642;2022-12-29T03:51:20;11.30;99.90
3380;DHT22;1703;51.964;7.642;2022-12-29T03:53:47;11.40;99.90
3380;DHT22;1703;51.964;7.642;2022-12-29T03:56:14;11.30;99.90
3380;DHT22;1703;51.964;7.642;2022-12-29T03:58:41;11.30;99.90
3380;DHT22;1703;51.964;7.642;2022-12-29T04:01:13;11.40;99.90
3380;DHT22;1703;51.964;7.642;2022-12-29T04:03:40;11.40;99.90
3380;DHT22;1703;51.964;7.642;2022-12-29T04:06:08;11.40;99.90
3380;DHT22;1703;51.964;7.642;2022-12-29T04:08:45;11.40;99.90
3380;DHT22;1703;51.964;7.642;2022-12-29T04:11:11;11.40;99.90
3380;DHT22;1703;51.964;7.642;2022-12-29T04:13:39;11.40;99.90
3380;DHT22;1703;51.964;7.642;2022-12-29T04:16:08;11.40;99.90
3380;DHT22;1703;51.964;7.642;2022-12-29T04:18:35;11.30;99.90
3380;DHT22;1703;51.964;7.642;2022-12-29T04:21:02;11.30;99.90
3380;DHT22;1703;51.964;7.642;2022-12-29T04:23:34;11.30;99.90
3380;DHT22;1703;51.964;7.642;2022-12-29T04:26:05;11.30;99.90
3380;DHT22;1703;51.964;7.642;2022-12-29T04:28:38;11.30;99.90
3380;DHT22;1703;51.964;7.642;2022-12-29T04:31:43;11.20;99.90
3380;DHT22;1703;51.964;7.642;2022-12-29T04:34:11;11.20;99.90
3380;DHT22;1703;51.964;7.642;2022-12-29T04:36:38;11.20;99.90
3380;DHT22;1703;51.964;7.642;2022-12-29T04:39:07;11.10;99.90
3380;DHT22;1703;51.964;7.642;2022-12-29T04:41:35;11.00;99.90
3380;DHT22;1703;51.964;7.642;2022-12-29T04:44:02;11.00;99.90
3380;DHT22;1703;51.964;7.642;2022-12-29T04:46:55;10.90;99.90
3380;DHT22;1703;51.964;7.642;2022-12-29T04:49:37;10.70;99.90
3380;DHT22;1703;51.964;7.642;2022-12-29T04:52:21;10.70;99.90
3380;DHT22;1703;51.964;7.642;2022-12-29T04:54:49;10.60;99.90
3380;DHT22;1703;51.964;7.642;2022-12-29T04:57:19;10.60;99.90
3380;DHT22;1703;51.964;7.642;2022-12-29T04:59:50;10.50;99.90
3380;DHT22;1703;51.964;7.642;2022-12-29T05:02:19;10.50;99.90
3380;DHT22;1703;51.964;7.642;2022-12-29T05:04:48;10.50;99.90
3380;DHT22;1703;51.964;7.642;2022-12-29T05:07:16;10.50;99.90
3380;DHT22;1703;51.964;7.642;2022-12-29T05:09:44;10.50;99.90
3380;DHT22;1703;51.964;7.642;2022-12-29T05:12:12;10.40;99.90
3380;DHT22;1703;51.964;7.642;2022-12-29T05:14:48;10.40;99.90
3380;DHT22;1703;51.964;7.642;2022-12-29T05:17:14;10.40;99.90
3380;DHT22;1703;51.964;7.642;2022-12-29T05:19:41;10.20;99.90
3380;DHT22;1703;51.964;7.642;2022-12-29T05:22:08;10.10;99.90
3380;DHT22;1703;51.964;7.642;2022-12-29T05:24:37;10.00;99.90
3380;DHT22;1703;51.964;7.642;2022-12-29T05:27:04;9.90;99.90
3380;DHT22;1703;51.964;7.642;2022-12-29T05:29:48;9.90;99.90
3380;DHT22;1703;51.964;7.642;2022-12-29T05:32:15;9.90;99.90
3380;DHT22;1703;51.964;7.642;2022-12-29T05:34:43;9.80;99.90
3380;DHT22;1703;51.964;7.642;2022-12-29T05:37:10;9.80;99.90
3380;DHT22;1703;51.964;7.642;2022-12-29T05:39:40;9.70;99.90
3380;DHT22;1703;51.964;7.642;2022-12-29T05:42:08;9.70;99.90
3380;DHT22;1703;51.964;7.642;2022-12-29T05:44:56;9.70;99.90
3380;DHT22;1703;51.964;7.642;2022-12-29T05:47:43;9.70;99.90
3380;DHT22;1703;51.964;7.642;2022-12-29T05:50:43;9.70;99.90
3380;DHT22;1703;51.964;7.642;2022-12-29T05:53:14;9.70;99.90
3380;DHT22;1703;51.964;7.642;2022-12-29T05:55:44;9.70;99.90
3380;DHT22;1703;51.964;7.642;2022-12-29T05:58:11;9.60;99.90
3380;DHT22;1703;51.964;7.642;2022-12-29T06:00:41;9.60;99.90
3380;DHT22;1703;51.964;7.642;2022-12-29T06:03:09;9.60;99.90
3380;DHT22;1703;51.964;7.642;2022-12-29T06:05:39;9.60;99.90
3380;DHT22;1703;51.964;7.642;2022-12-29T06:08:06;9.60;99.90
3380;DHT22;1703;51.964;7.642;2022-12-29T06:10:33;9.60;99.90
3380;DHT22;1703;51.964;7.642;2022-12-29T06:13:05;9.60;99.90
3380;DHT22;1703;51.964;7.642;2022-12-29T06:15:35;9.60;99.90
3380;DHT22;1703;51.964;7.642;2022-12-29T06:18:06;9.60;99.90
3380;DHT22;1703;51.964;7.642;2022-12-29T06:20:35;9.60;99.90
3380;DHT22;1703;51.964;7.642;2022-12-29T06:23:05;9.60;99.90
3380;DHT22;1703;51.964;7.642;2022-12-29T06:25:31;9.60;99.90
3380;DHT22;1703;51.964;7.642;2022-12-29T06:27:59;9.60;99.90
3380;DHT22;1703;51.964;7.642;2022-12-29T06:30:26;9.60;99.90
3380;DHT22;1703;51.964;7.642;2022-12-29T06:32:53;9.60;99.90
3380;DHT22;1703;51.964;7.642;2022-12-29T06:35:22;9.70;99.90
3380;DHT22;1703;51.964;7.642;2022-12-29T06:37:50;9.70;99.90
3380;DHT22;1703;51.964;7.642;2022-12-29T06:40:19;9.70;99.90
3380;DHT22;1703;51.964;7.642;2022-12-29T06:43:06;9.70;99.90
3380;DHT22;1703;51.964;7.642;2022-12-29T06:45:56;9.80;99.90
3380;DHT22;1703;51.964;7.642;2022-12-29T06:48:23;9.80;99.90
3380;DHT22;1703;51.964;7.642;2022-12-29T06:50:51;9.80;99.90
3380;DHT22;1703;51.964;7.642;2022-12-29T06:53:18;9.80;99.90
3380;DHT22;1703;51.964;7.642;2022-12-29T06:55:44;9.80;99.90
3380;DHT22;1703;51.964;7.642;2022-12-29T06:58:11;9.80;99.90
3380;DHT22;1703;51.964;7.642;2022-12-29T07:00:38;9.80;99.90
3380;DHT22;1703;51.964;7.642;2022-12-29T07:03:05;9.80;99.90
3380;DHT22;1703;51.964;7.642;2022-12-29T07:05:32;9.80;99.90
3380;DHT22;1703;51.964;7.642;2022-12-29T07:08:00;9.80;99.90
3380;DHT22;1703;51.964;7.642;2022-12-29T07:10:27;9.80;99.90
3380;DHT22;1703;51.964;7.642;2022-12-29T07:12:53;9.80;99.90
3380;DHT22;1703;51.964;7.642;2022-12-29T07:15:20;9.80;99.90
3380;DHT22;1703;51.964;7.642;2022-12-29T07:17:47;9.80;99.90
3380;DHT22;1703;51.964;7.642;2022-12-29T07:20:15;9.80;99.90
3380;DHT22;1703;51.964;7.642;2022-12-29T07:22:42;9.80;99.90
3380;DHT22;1703;51.964;7.642;2022-12-29T07:25:10;9.90;99.90
3380;DHT22;1703;51.964;7.642;2022-12-29T07:27:37;9.80;99.90
3380;DHT22;1703;51.964;7.642;2022-12-29T07:30:04;9.80;99.90
3380;DHT22;1703;51.964;7.642;2022-12-29T07:32:32;9.80;99.90
3380;DHT22;1703;51.964;7.642;2022-12-29T07:34:59;9.80;99.90
3380;DHT22;1703;51.964;7.642;2022-12-29T07:37:50;9.90;99.90
3380;DHT22;1703;51.964;7.642;2022-12-29T07:40:18;9.90;99.90
3380;DHT22;1703;51.964;7.642;2022-12-29T07:42:45;10.00;99.90
3380;DHT22;1703;51.964;7.642;2022-12-29T07:45:14;10.10;99.90
3380;DHT22;1703;51.964;7.642;2022-12-29T07:47:53;10.10;99.90
3380;DHT22;1703;51.964;7.642;2022-12-29T07:50:19;10.00;99.90
3380;DHT22;1703;51.964;7.642;2022-12-29T07:52:46;9.90;99.90
3380;DHT22;1703;51.964;7.642;2022-12-29T07:55:13;9.90;99.90
3380;DHT22;1703;51.964;7.642;2022-12-29T07:57:42;9.90;99.90
3380;DHT22;1703;51.964;7.642;2022-12-29T08:00:10;9.90;99.90
3380;DHT22;1703;51.964;7.642;2022-12-29T08:02:39;9.90;99.90
3380;DHT22;1703;51.964;7.642;2022-12-29T08:05:06;9.90;99.90
3380;DHT22;1703;51.964;7.642;2022-12-29T08:07:33;9.90;99.90
3380;DHT22;1703;51.964;7.642;2022-12-29T08:10:00;9.90;99.90
3380;DHT22;1703;51.964;7.642;2022-12-29T08:12:27;9.90;99.90
3380;DHT22;1703;51.964;7.642;2022-12-29T08:14:55;9.90;99.90
3380;DHT22;1703;51.964;7.642;2022-12-29T08:17:22;9.90;99.90
3380;DHT22;1703;51.964;7.642;2022-12-29T08:19:49;9.90;99.90
3380;DHT22;1703;51.964;7.642;2022-12-29T08:22:16;9.90;99.90
3380;DHT22;1703;51.964;7.642;2022-12-29T08:24:43;9.90;99.90
3380;DHT22;1703;51.964;7.642;2022-12-29T08:27:10;9.90;99.90
3380;DHT22;1703;51.964;7.642;2022-12-29T08:29:36;9.90;99.90
3380;DHT22;1703;51.964;7.642;2022-12-29T08:32:05;10.00;99.90
3380;DHT22;1703;51.964;7.642;2022-12-29T08:34:32;10.00;99.90
3380;DHT22;1703;51.964;7.642;2022-12-29T08:36:58;10.00;99.90
3380;DHT22;1703;51.964;7.642;2022-12-29T08:39:25;10.00;99.90
3380;DHT22;1703;51.964;7.642;2022-12-29T08:41:53;10.10;99.90
3380;DHT22;1703;51.964;7.642;2022-12-29T08:44:20;10.10;99.90
3380;DHT22;1703;51.964;7.642;2022-12-29T08:46:47;10.20;99.90
3380;DHT22;1703;51.964;7.642;2022-12-29T08:49:15;10.20;99.90
3380;DHT22;1703;51.964;7.642;2022-12-29T08:51:42;10.30;99.90
3380;DHT22;1703;51.964;7.642;2022-12-29T08:54:09;10.30;99.90
3380;DHT22;1703;51.964;7.642;2022-12-29T08:56:35;10.40;99.90
3380;DHT22;1703;51.964;7.642;2022-12-29T08:59:03;10.40;99.90
3380;DHT22;1703;51.964;7.642;2022-12-29T09:01:31;10.40;99.90
3380;DHT22;1703;51.964;7.642;2022-12-29T09:03:59;10.40;99.90
3380;DHT22;1703;51.964;7.642;2022-12-29T09:06:30;10.50;99.90
3380;DHT22;1703;51.964;7.642;2022-12-29T09:08:56;10.70;99.90
3380;DHT22;1703;51.964;7.642;2022-12-29T09:11:25;10.60;99.90
3380;DHT22;1703;51.964;7.642;2022-12-29T09:13:52;10.60;99.90
3380;DHT22;1703;51.964;7.642;2022-12-29T09:16:21;10.70;99.90
3380;DHT22;1703;51.964;7.642;2022-12-29T09:18:48;10.70;99.90
3380;DHT22;1703;51.964;7.642;2022-12-29T09:21:16;10.60;99.90
3380;DHT22;1703;51.964;7.642;2022-12-29T09:23:44;10.70;99.90
3380;DHT22;1703;51.964;7.642;2022-12-29T09:26:11;10.70;99.90
3380;DHT22;1703;51.964;7.642;2022-12-29T09:28:38;10.80;99.90
3380;DHT22;1703;51.964;7.642;2022-12-29T09:31:05;10.80;99.90
3380;DHT22;1703;51.964;7.642;2022-12-29T09:33:32;10.90;99.90
3380;DHT22;1703;51.964;7.642;2022-12-29T09:36:00;10.90;99.90
3380;DHT22;1703;51.964;7.642;2022-12-29T09:38:27;10.90;99.90
3380;DHT22;1703;51.964;7.642;2022-12-29T09:40:59;10.90;99.90
3380;DHT22;1703;51.964;7.642;2022-12-29T09:43:46;11.00;99.90
3380;DHT22;1703;51.964;7.642;2022-12-29T09:46:21;10.90;99.90
3380;DHT22;1703;51.964;7.642;2022-12-29T09:48:55;10.90;99.90
3380;DHT22;1703;51.964;7.642;2022-12-29T09:51:25;10.90;99.90
3380;DHT22;1703;51.964;7.642;2022-12-29T09:53:56;10.90;99.90
3380;DHT22;1703;51.964;7.642;2022-12-29T09:56:26;11.00;99.90
3380;DHT22;1703;51.964;7.642;2022-12-29T09:58:57;11.10;99.90
3380;DHT22;1703;51.964;7.642;2022-12-29T10:01:31;11.10;99.90
3380;DHT22;1703;51.964;7.642;2022-12-29T10:04:00;11.10;99.90
3380;DHT22;1703;51.964;7.642;2022-12-29T10:06:34;11.10;99.90
3380;DHT22;1703;51.964;7.642;2022-12-29T10:09:08;11.20;99.90
3380;DHT22;1703;51.964;7.642;2022-12-29T10:11:55;11.20;99.90
3380;DHT22;1703;51.964;7.642;2022-12-29T10:14:36;11.20;99.90
3380;DHT22;1703;51.964;7.642;2022-12-29T10:17:13;11.20;99.90
3380;DHT22;1703;51.964;7.642;2022-12-29T10:19:55;11.30;99.90
3380;DHT22;1703;51.964;7.642;2022-12-29T10:22:34;11.30;99.90
3380;DHT22;1703;51.964;7.642;2022-12-29T10:25:12;11.30;99.90
3380;DHT22;1703;51.964;7.642;2022-12-29T10:27:42;11.30;99.90
3380;DHT22;1703;51.964;7.642;2022-12-29T10:30:12;11.30;99.90
3380;DHT22;1703;51.964;7.642;2022-12-29T10:32:43;11.40;99.90
3380;DHT22;1703;51.964;7.642;2022-12-29T10:35:14;11.40;99.90
3380;DHT22;1703;51.964;7.642;2022-12-29T10:37:46;11.40;99.90
3380;DHT22;1703;51.964;7.642;2022-12-29T10:40:19;11.40;99.90
3380;DHT22;1703;51.964;7.642;2022-12-29T10:42:52;11.40;99.90
3380;DHT22;1703;51.964;7.642;2022-12-29T10:45:22;11.40;99.90
3380;DHT22;1703;51.964;7.642;2022-12-29T10:47:53;11.40;99.90
3380;DHT22;1703;51.964;7.642;2022-12-29T10:50:23;11.40;99.90
3380;DHT22;1703;51.964;7.642;2022-12-29T10:52:51;11.40;99.90
3380;DHT22;1703;51.964;7.642;2022-12-29T10:55:22;11.40;99.90
3380;DHT22;1703;51.964;7.642;2022-12-29T10:57:51;11.50;99.90
3380;DHT22;1703;51.964;7.642;2022-12-29T11:00:19;11.50;99.90
3380;DHT22;1703;51.964;7.642;2022-12-29T11:05:38;11.50;99.90
3380;DHT22;1703;51.964;7.642;2022-12-29T11:08:11;11.60;99.90
3380;DHT22;1703;51.964;7.642;2022-12-29T11:10:40;11.60;99.90
3380;DHT22;1703;51.964;7.642;2022-12-29T11:13:15;11.70;99.90
3380;DHT22;1703;51.964;7.642;2022-12-29T11:15:43;11.70;99.90
3380;DHT22;1703;51.964;7.642;2022-12-29T11:18:22;11.70;99.90
3380;DHT22;1703;51.964;7.642;2022-12-29T11:20:51;11.70;99.90
3380;DHT22;1703;51.964;7.642;2022-12-29T11:23:28;11.80;99.90
3380;DHT22;1703;51.964;7.642;2022-12-29T11:26:17;11.80;99.90
3380;DHT22;1703;51.964;7.642;2022-12-29T11:29:03;11.70;99.90
3380;DHT22;1703;51.964;7.642;2022-12-29T11:31:30;11.70;99.90
3380;DHT22;1703;51.964;7.642;2022-12-29T11:33:57;11.70;99.90
3380;DHT22;1703;51.964;7.642;2022-12-29T11:36:24;11.70;99.90
3380;DHT22;1703;51.964;7.642;2022-12-29T11:38:53;11.80;99.90
3380;DHT22;1703;51.964;7.642;2022-12-29T11:41:22;11.80;99.90
3380;DHT22;1703;51.964;7.642;2022-12-29T11:43:52;11.70;99.90
3380;DHT22;1703;51.964;7.642;2022-12-29T11:46:24;11.70;99.90
3380;DHT22;1703;51.964;7.642;2022-12-29T11:48:51;11.80;99.90
3380;DHT22;1703;51.964;7.642;2022-12-29T11:51:23;11.70;99.90
3380;DHT22;1703;51.964;7.642;2022-12-29T11:53:55;11.80;99.90
3380;DHT22;1703;51.964;7.642;2022-12-29T11:56:34;11.80;99.90
3380;DHT22;1703;51.964;7.642;2022-12-29T12:02:08;11.70;99.90
3380;DHT22;1703;51.964;7.642;2022-12-29T12:04:38;11.80;99.90
3380;DHT22;1703;51.964;7.642;2022-12-29T12:07:11;11.80;99.90
3380;DHT22;1703;51.964;7.642;2022-12-29T12:09:45;11.90;99.90
3380;DHT22;1703;51.964;7.642;2022-12-29T12:12:21;11.90;99.90
3380;DHT22;1703;51.964;7.642;2022-12-29T12:14:54;11.80;99.90
3380;DHT22;1703;51.964;7.642;2022-12-29T12:17:49;11.70;99.90
3380;DHT22;1703;51.964;7.642;2022-12-29T12:20:19;11.70;99.90
3380;DHT22;1703;51.964;7.642;2022-12-29T12:22:54;11.60;99.90
3380;DHT22;1703;51.964;7.642;2022-12-29T12:25:27;11.60;99.90
3380;DHT22;1703;51.964;7.642;2022-12-29T12:27:58;11.60;99.90
3380;DHT22;1703;51.964;7.642;2022-12-29T12:30:28;11.60;99.90
3380;DHT22;1703;51.964;7.642;2022-12-29T12:33:02;11.60;99.90
3380;DHT22;1703;51.964;7.642;2022-12-29T12:35:37;11.50;99.90
3380;DHT22;1703;51.964;7.642;2022-12-29T12:38:19;11.50;99.90
3380;DHT22;1703;51.964;7.642;2022-12-29T12:41:01;11.50;99.90
3380;DHT22;1703;51.964;7.642;2022-12-29T12:43:39;11.50;99.90
3380;DHT22;1703;51.964;7.642;2022-12-29T12:49:35;11.50;99.90
3380;DHT22;1703;51.964;7.642;2022-12-29T12:52:14;11.50;99.90
3380;DHT22;1703;51.964;7.642;2022-12-29T12:54:55;11.50;99.90
3380;DHT22;1703;51.964;7.642;2022-12-29T12:57:40;11.40;99.90
3380;DHT22;1703;51.964;7.642;2022-12-29T13:00:14;11.40;99.90
3380;DHT22;1703;51.964;7.642;2022-12-29T13:02:52;11.40;99.90
3380;DHT22;1703;51.964;7.642;2022-12-29T13:05:29;11.40;99.90
3380;DHT22;1703;51.964;7.642;2022-12-29T13:08:07;11.40;99.90
3380;DHT22;1703;51.964;7.642;2022-12-29T13:10:47;11.40;99.90
3380;DHT22;1703;51.964;7.642;2022-12-29T13:16:26;11.40;99.90
3380;DHT22;1703;51.964;7.642;2022-12-29T13:18:59;11.30;99.90
3380;DHT22;1703;51.964;7.642;2022-12-29T13:21:37;11.30;99.90
3380;DHT22;1703;51.964;7.642;2022-12-29T13:24:16;11.20;99.90
3380;DHT22;1703;51.964;7.642;2022-12-29T13:26:48;11.20;99.90
3380;DHT22;1703;51.964;7.642;2022-12-29T13:29:20;11.10;99.90
3380;DHT22;1703;51.964;7.642;2022-12-29T13:31:54;11.20;99.90
3380;DHT22;1703;51.964;7.642;2022-12-29T13:34:32;11.20;99.90
3380;DHT22;1703;51.964;7.642;2022-12-29T13:37:07;11.20;99.90
3380;DHT22;1703;51.964;7.642;2022-12-29T13:39:39;11.20;99.90
3380;DHT22;1703;51.964;7.642;2022-12-29T13:42:06;11.20;99.90
3380;DHT22;1703;51.964;7.642;2022-12-29T13:44:37;11.20;99.90
3380;DHT22;1703;51.964;7.642;2022-12-29T13:47:15;11.40;99.90
3380;DHT22;1703;51.964;7.642;2022-12-29T13:49:46;11.40;99.90
3380;DHT22;1703;51.964;7.642;2022-12-29T13:52:24;11.50;99.90
3380;DHT22;1703;51.964;7.642;2022-12-29T13:54:58;11.40;99.90
3380;DHT22;1703;51.964;7.642;2022-12-29T13:57:36;11.30;99.90
3380;DHT22;1703;51.964;7.642;2022-12-29T14:00:13;11.30;99.90
3380;DHT22;1703;51.964;7.642;2022-12-29T14:02:50;11.20;99.90
3380;DHT22;1703;51.964;7.642;2022-12-29T14:05:31;11.20;99.90
3380;DHT22;1703;51.964;7.642;2022-12-29T14:08:01;11.20;99.90
3380;DHT22;1703;51.964;7.642;2022-12-29T14:10:32;11.20;99.90
3380;DHT22;1703;51.964;7.642;2022-12-29T14:13:04;11.10;99.90
3380;DHT22;1703;51.964;7.642;2022-12-29T14:15:32;11.10;99.90
3380;DHT22;1703;51.964;7.642;2022-12-29T14:18:03;11.10;99.90
3380;DHT22;1703;51.964;7.642;2022-12-29T14:20:31;11.00;99.90
3380;DHT22;1703;51.964;7.642;2022-12-29T14:23:01;11.00;99.90
3380;DHT22;1703;51.964;7.642;2022-12-29T14:25:58;10.90;99.90
3380;DHT22;1703;51.964;7.642;2022-12-29T14:28:27;11.00;99.90
3380;DHT22;1703;51.964;7.642;2022-12-29T14:30:55;11.00;99.90
3380;DHT22;1703;51.964;7.642;2022-12-29T14:33:23;11.00;99.90
3380;DHT22;1703;51.964;7.642;2022-12-29T14:35:53;11.00;99.90
3380;DHT22;1703;51.964;7.642;2022-12-29T14:38:29;11.00;99.90
3380;DHT22;1703;51.964;7.642;2022-12-29T14:41:16;11.00;99.90
3380;DHT22;1703;51.964;7.642;2022-12-29T14:43:52;11.00;99.90
3380;DHT22;1703;51.964;7.642;2022-12-29T14:46:20;11.00;99.90
3380;DHT22;1703;51.964;7.642;2022-12-29T14:48:47;11.10;99.90
3380;DHT22;1703;51.964;7.642;2022-12-29T14:51:27;11.10;99.90
3380;DHT22;1703;51.964;7.642;2022-12-29T14:53:57;11.10;99.90
3380;DHT22;1703;51.964;7.642;2022-12-29T14:56:28;11.20;99.90
3380;DHT22;1703;51.964;7.642;2022-12-29T14:58:59;11.20;99.90
3380;DHT22;1703;51.964;7.642;2022-12-29T15:01:39;11.10;99.90
3380;DHT22;1703;51.964;7.642;2022-12-29T15:04:15;11.10;99.90
3380;DHT22;1703;51.964;7.642;2022-12-29T15:06:43;11.10;99.90
3380;DHT22;1703;51.964;7.642;2022-12-29T15:09:22;11.10;99.90
3380;DHT22;1703;51.964;7.642;2022-12-29T15:11:52;11.10;99.90
3380;DHT22;1703;51.964;7.642;2022-12-29T15:14:38;11.10;99.90
3380;DHT22;1703;51.964;7.642;2022-12-29T15:17:11;11.10;99.90
3380;DHT22;1703;51.964;7.642;2022-12-29T15:19:48;11.10;99.90
3380;DHT22;1703;51.964;7.642;2022-12-29T15:22:15;11.10;99.90
3380;DHT22;1703;51.964;7.642;2022-12-29T15:24:44;11.00;99.90
3380;DHT22;1703;51.964;7.642;2022-12-29T15:27:14;11.00;99.90
3380;DHT22;1703;51.964;7.642;2022-12-29T15:29:43;11.00;99.90
3380;DHT22;1703;51.964;7.642;2022-12-29T15:32:18;11.00;99.90
3380;DHT22;1703;51.964;7.642;2022-12-29T15:34:46;11.00;99.90
3380;DHT22;1703;51.964;7.642;2022-12-29T15:37:18;11.00;99.90
3380;DHT22;1703;51.964;7.642;2022-12-29T15:39:47;11.00;99.90
3380;DHT22;1703;51.964;7.642;2022-12-29T15:42:48;11.00;99.90
3380;DHT22;1703;51.964;7.642;2022-12-29T15:45:16;10.70;99.90
3380;DHT22;1703;51.964;7.642;2022-12-29T15:47:44;10.50;99.90
3380;DHT22;1703;51.964;7.642;2022-12-29T15:50:21;10.40;99.90
3380;DHT22;1703;51.964;7.642;2022-12-29T15:52:49;10.30;99.90
3380;DHT22;1703;51.964;7.642;2022-12-29T15:55:21;10.30;99.90
3380;DHT22;1703;51.964;7.642;2022-12-29T15:57:56;10.20;99.90
3380;DHT22;1703;51.964;7.642;2022-12-29T16:00:24;10.20;99.90
3380;DHT22;1703;51.964;7.642;2022-12-29T16:02:52;10.20;99.90
3380;DHT22;1703;51.964;7.642;2022-12-29T16:05:20;10.10;99.90
3380;DHT22;1703;51.964;7.642;2022-12-29T16:07:55;9.90;99.90
3380;DHT22;1703;51.964;7.642;2022-12-29T16:10:30;9.70;99.90
3380;DHT22;1703;51.964;7.642;2022-12-29T16:13:12;9.50;99.90
3380;DHT22;1703;51.964;7.642;2022-12-29T16:15:45;9.40;99.90
3380;DHT22;1703;51.964;7.642;2022-12-29T16:18:22;9.30;99.90
3380;DHT22;1703;51.964;7.642;2022-12-29T16:20:51;9.10;99.90
3380;DHT22;1703;51.964;7.642;2022-12-29T16:23:21;9.10;99.90
3380;DHT22;1703;51.964;7.642;2022-12-29T16:25:51;9.10;99.90
3380;DHT22;1703;51.964;7.642;2022-12-29T16:28:23;9.10;99.90
3380;DHT22;1703;51.964;7.642;2022-12-29T16:30:58;9.10;99.90
3380;DHT22;1703;51.964;7.642;2022-12-29T16:33:47;9.10;99.90
3380;DHT22;1703;51.964;7.642;2022-12-29T16:36:30;9.00;99.90
3380;DHT22;1703;51.964;7.642;2022-12-29T16:39:16;9.00;99.90
3380;DHT22;1703;51.964;7.642;2022-12-29T16:41:48;9.00;99.90
3380;DHT22;1703;51.964;7.642;2022-12-29T16:44:19;9.00;99.90
3380;DHT22;1703;51.964;7.642;2022-12-29T16:49:53;9.10;99.90
3380;DHT22;1703;51.964;7.642;2022-12-29T16:52:23;9.10;99.90
3380;DHT22;1703;51.964;7.642;2022-12-29T16:54:54;9.20;99.90
3380;DHT22;1703;51.964;7.642;2022-12-29T16:57:25;9.20;99.90